createdAt,value
2018-08-20T00:02:05.794Z,20.82
2018-08-20T00:04:39.560Z,20.81
2018-08-20T00:07:08.182Z,20.72
2018-08-20T00:09:41.985Z,20.68
2018-08-20T00:12:10.761Z,20.61
2018-08-20T00:14:39.243Z,20.60
2018-08-20T00:17:07.806Z,20.58
2018-08-20T00:19:36.481Z,20.51
2018-08-20T00:22:05.001Z,20.44
2018-08-20T00:24:33.584Z,20.38
2018-08-20T00:27:03.284Z,20.32
2018-08-20T00:29:32.181Z,20.25
2018-08-20T00:32:00.715Z,20.17
2018-08-20T00:34:29.304Z,20.08
2018-08-20T00:36:57.820Z,20.01
2018-08-20T00:39:26.473Z,19.94
2018-08-20T00:41:54.970Z,19.89
2018-08-20T00:44:23.565Z,19.79
2018-08-20T00:46:52.127Z,19.73
2018-08-20T00:49:20.703Z,19.66
2018-08-20T00:51:49.347Z,19.62
2018-08-20T00:54:17.862Z,19.57
2018-08-20T00:56:46.500Z,19.54
2018-08-20T00:59:19.660Z,19.51
2018-08-20T01:01:48.256Z,19.45
2018-08-20T01:07:10.798Z,19.33
2018-08-20T01:09:39.297Z,19.32
2018-08-20T01:12:07.761Z,19.31
2018-08-20T01:14:36.193Z,19.29
2018-08-20T01:17:04.863Z,19.29
2018-08-20T01:19:33.468Z,19.29
2018-08-20T01:22:02.318Z,19.27
2018-08-20T01:24:30.745Z,19.29
2018-08-20T01:26:59.358Z,19.32
2018-08-20T01:29:27.856Z,19.35
2018-08-20T01:31:56.357Z,19.39
2018-08-20T01:34:24.817Z,19.42
2018-08-20T01:36:53.268Z,19.42
2018-08-20T01:39:21.787Z,19.44
2018-08-20T01:41:50.269Z,19.46
2018-08-20T01:44:18.746Z,19.47
2018-08-20T01:46:47.231Z,19.49
2018-08-20T01:49:15.701Z,19.50
2018-08-20T01:51:44.280Z,19.52
2018-08-20T01:54:12.726Z,19.53
2018-08-20T01:56:41.348Z,19.52
2018-08-20T01:59:09.809Z,19.53
2018-08-20T02:01:38.318Z,19.52
2018-08-20T02:04:06.932Z,19.52
2018-08-20T02:06:36.601Z,19.52
2018-08-20T02:09:07.150Z,19.52
2018-08-20T02:11:35.731Z,19.52
2018-08-20T02:14:04.403Z,19.53
2018-08-20T02:16:32.884Z,19.52
2018-08-20T02:19:01.377Z,19.51
2018-08-20T02:21:29.872Z,19.48
2018-08-20T02:23:58.480Z,19.46
2018-08-20T02:26:27.025Z,19.46
2018-08-20T02:28:55.471Z,19.47
2018-08-20T02:31:24.023Z,19.45
2018-08-20T02:33:53.475Z,19.47
2018-08-20T02:36:21.981Z,19.46
2018-08-20T02:38:50.675Z,19.45
2018-08-20T02:41:19.270Z,19.44
2018-08-20T02:43:47.884Z,19.44
2018-08-20T02:46:16.764Z,19.42
2018-08-20T02:48:45.252Z,19.42
2018-08-20T02:51:13.799Z,19.38
2018-08-20T02:53:42.472Z,19.36
2018-08-20T02:56:10.946Z,19.35
2018-08-20T02:58:39.573Z,19.36
2018-08-20T03:01:08.112Z,19.33
2018-08-20T03:03:36.614Z,19.31
2018-08-20T03:06:05.218Z,19.32
2018-08-20T03:08:33.779Z,19.31
2018-08-20T03:11:02.399Z,19.31
2018-08-20T03:13:30.945Z,19.30
2018-08-20T03:15:59.467Z,19.30
2018-08-20T03:18:28.014Z,19.29
2018-08-20T03:20:56.519Z,19.30
2018-08-20T03:23:25.093Z,19.29
2018-08-20T03:25:53.538Z,19.30
2018-08-20T03:28:22.136Z,19.31
2018-08-20T03:30:50.598Z,19.32
2018-08-20T03:33:19.146Z,19.32
2018-08-20T03:35:47.688Z,19.33
2018-08-20T03:38:16.173Z,19.33
2018-08-20T03:40:44.761Z,19.32
2018-08-20T03:43:13.344Z,19.31
2018-08-20T03:45:41.818Z,19.33
2018-08-20T03:48:10.406Z,19.30
2018-08-20T03:50:38.890Z,19.32
2018-08-20T03:53:07.476Z,19.32
2018-08-20T03:55:36.009Z,19.32
2018-08-20T03:58:04.542Z,19.33
2018-08-20T04:00:33.212Z,19.33
2018-08-20T04:03:01.698Z,19.32
2018-08-20T04:05:30.140Z,19.33
2018-08-20T04:07:58.677Z,19.33
2018-08-20T04:10:27.143Z,19.32
2018-08-20T04:12:55.649Z,19.33
2018-08-20T04:15:24.325Z,19.34
2018-08-20T04:17:52.841Z,19.35
2018-08-20T04:20:21.406Z,19.34
2018-08-20T04:22:49.908Z,19.36
2018-08-20T04:25:18.456Z,19.38
2018-08-20T04:27:47.083Z,19.38
2018-08-20T04:30:15.666Z,19.38
2018-08-20T04:32:44.117Z,19.37
2018-08-20T04:35:12.697Z,19.36
2018-08-20T04:37:41.210Z,19.37
2018-08-20T04:40:09.756Z,19.36
2018-08-20T04:42:38.191Z,19.36
2018-08-20T04:45:07.737Z,19.36
2018-08-20T04:47:36.167Z,19.40
2018-08-20T04:50:06.503Z,19.39
2018-08-20T04:52:34.844Z,19.38
2018-08-20T04:55:03.309Z,19.39
2018-08-20T04:57:31.980Z,19.41
2018-08-20T05:00:00.423Z,19.41
2018-08-20T05:02:28.877Z,19.42
2018-08-20T05:04:57.292Z,19.44
2018-08-20T05:07:25.764Z,19.43
2018-08-20T05:09:54.880Z,19.44
2018-08-20T05:12:23.402Z,19.43
2018-08-20T05:14:51.924Z,19.44
2018-08-20T05:17:20.565Z,19.45
2018-08-20T05:19:49.243Z,19.44
2018-08-20T05:22:17.743Z,19.44
2018-08-20T05:24:46.244Z,19.43
2018-08-20T05:27:14.956Z,19.43
2018-08-20T05:29:43.491Z,19.44
2018-08-20T05:32:12.066Z,19.45
2018-08-20T05:34:40.570Z,19.44
2018-08-20T05:37:09.024Z,19.47
2018-08-20T05:39:37.625Z,19.46
2018-08-20T05:42:06.211Z,19.50
2018-08-20T05:44:34.793Z,19.53
2018-08-20T05:47:03.285Z,19.52
2018-08-20T05:49:31.736Z,19.54
2018-08-20T05:52:00.353Z,19.56
2018-08-20T05:54:28.912Z,19.57
2018-08-20T05:56:57.411Z,19.60
2018-08-20T05:59:29.222Z,19.59
2018-08-20T06:01:57.754Z,19.60
2018-08-20T06:04:26.253Z,19.61
2018-08-20T06:06:54.793Z,19.63
2018-08-20T06:09:23.290Z,19.62
2018-08-20T06:11:51.910Z,19.63
2018-08-20T06:14:20.452Z,19.62
2018-08-20T06:16:48.932Z,19.63
2018-08-20T06:19:17.423Z,19.66
2018-08-20T06:21:46.041Z,19.66
2018-08-20T06:24:14.597Z,19.70
2018-08-20T06:26:43.209Z,19.68
2018-08-20T06:29:11.794Z,19.65
2018-08-20T06:31:40.352Z,19.66
2018-08-20T06:34:08.848Z,19.65
2018-08-20T06:36:37.369Z,19.65
2018-08-20T06:39:07.764Z,19.62
2018-08-20T06:41:36.408Z,19.61
2018-08-20T06:44:05.328Z,19.58
2018-08-20T06:46:33.960Z,19.58
2018-08-20T06:49:02.470Z,19.58
2018-08-20T06:51:30.988Z,19.60
2018-08-20T06:53:59.614Z,19.60
2018-08-20T06:56:42.451Z,19.57
2018-08-20T06:59:10.948Z,19.55
2018-08-20T07:01:39.644Z,19.57
2018-08-20T07:04:08.683Z,19.59
2018-08-20T07:06:37.224Z,19.61
2018-08-20T07:09:06.270Z,19.66
2018-08-20T07:11:34.771Z,19.72
2018-08-20T07:14:04.503Z,19.73
2018-08-20T07:16:32.989Z,19.75
2018-08-20T07:19:01.523Z,19.81
2018-08-20T07:21:29.984Z,19.85
2018-08-20T07:23:58.564Z,19.85
2018-08-20T07:26:27.157Z,19.89
2018-08-20T07:28:55.704Z,19.91
2018-08-20T07:31:24.340Z,19.92
2018-08-20T07:33:53.089Z,19.99
2018-08-20T07:36:21.641Z,20.04
2018-08-20T07:38:50.284Z,20.06
2018-08-20T07:41:18.840Z,20.03
2018-08-20T07:43:47.390Z,20.01
2018-08-20T07:46:15.999Z,20.04
2018-08-20T07:48:44.602Z,20.08
2018-08-20T07:51:13.094Z,20.04
2018-08-20T07:53:41.647Z,20.04
2018-08-20T07:56:10.155Z,20.04
2018-08-20T07:58:38.754Z,20.05
2018-08-20T08:01:07.429Z,20.14
2018-08-20T08:03:36.018Z,20.16
2018-08-20T08:06:05.399Z,20.16
2018-08-20T08:08:34.293Z,20.23
2018-08-20T08:11:03.066Z,20.33
2018-08-20T08:13:31.733Z,20.33
2018-08-20T08:16:00.251Z,20.31
2018-08-20T08:18:28.799Z,20.37
2018-08-20T08:20:57.416Z,20.41
2018-08-20T08:23:25.977Z,20.47
2018-08-20T08:25:54.604Z,20.50
2018-08-20T08:28:23.144Z,20.59
2018-08-20T08:30:51.879Z,20.64
2018-08-20T08:33:20.303Z,20.70
2018-08-20T08:35:48.785Z,20.79
2018-08-20T08:38:17.319Z,20.85
2018-08-20T08:40:45.870Z,20.92
2018-08-20T08:43:14.538Z,21.03
2018-08-20T08:45:43.036Z,21.09
2018-08-20T08:48:11.857Z,21.13
2018-08-20T08:50:40.456Z,21.18
2018-08-20T08:53:09.127Z,21.17
2018-08-20T08:55:37.775Z,21.17
2018-08-20T08:58:06.575Z,21.25
2018-08-20T09:00:35.368Z,21.35
2018-08-20T09:03:03.904Z,21.41
2018-08-20T09:05:32.454Z,21.37
2018-08-20T09:08:01.016Z,21.42
2018-08-20T09:10:29.652Z,21.42
2018-08-20T09:12:58.326Z,21.49
2018-08-20T09:15:26.968Z,21.54
2018-08-20T09:17:55.638Z,21.62
2018-08-20T09:20:24.244Z,21.81
2018-08-20T09:22:52.757Z,21.84
2018-08-20T09:25:21.301Z,21.91
2018-08-20T09:27:49.890Z,22.00
2018-08-20T09:30:21.202Z,22.11
2018-08-20T09:32:49.978Z,22.25
2018-08-20T09:35:18.566Z,22.48
2018-08-20T09:37:47.102Z,22.68
2018-08-20T09:40:15.785Z,22.86
2018-08-20T09:42:44.796Z,23.02
2018-08-20T09:45:13.361Z,23.24
2018-08-20T09:47:42.653Z,23.44
2018-08-20T09:50:12.825Z,23.57
2018-08-20T09:52:41.391Z,23.71
2018-08-20T09:55:10.455Z,23.74
2018-08-20T09:57:39.359Z,23.84
2018-08-20T10:00:11.347Z,23.95
2018-08-20T10:02:39.952Z,24.15
2018-08-20T10:05:08.615Z,24.37
2018-08-20T10:07:37.146Z,24.56
2018-08-20T10:10:06.308Z,24.70
2018-08-20T10:12:34.875Z,24.64
2018-08-20T10:15:03.418Z,24.67
2018-08-20T10:17:32.027Z,24.75
2018-08-20T10:20:00.600Z,24.72
2018-08-20T10:22:29.189Z,24.57
2018-08-20T10:24:58.029Z,24.44
2018-08-20T10:27:26.547Z,24.31
2018-08-20T10:29:55.092Z,24.24
2018-08-20T10:32:23.658Z,24.24
2018-08-20T10:34:52.234Z,24.27
2018-08-20T10:37:20.764Z,24.33
2018-08-20T10:39:49.355Z,24.41
2018-08-20T10:42:18.053Z,24.57
2018-08-20T10:44:54.933Z,24.51
2018-08-20T10:47:23.426Z,24.47
2018-08-20T10:49:51.904Z,24.31
2018-08-20T10:52:20.541Z,24.19
2018-08-20T10:54:49.095Z,24.14
2018-08-20T10:57:17.669Z,24.06
2018-08-20T10:59:46.231Z,23.97
2018-08-20T11:02:14.761Z,23.85
2018-08-20T11:04:43.350Z,23.71
2018-08-20T11:07:12.018Z,23.68
2018-08-20T11:09:40.633Z,23.61
2018-08-20T11:12:09.109Z,23.57
2018-08-20T11:14:37.645Z,23.51
2018-08-20T11:17:06.409Z,23.41
2018-08-20T11:19:34.941Z,23.35
2018-08-20T11:22:03.657Z,23.33
2018-08-20T11:24:32.133Z,23.34
2018-08-20T11:27:00.742Z,23.41
2018-08-20T11:29:29.368Z,23.53
2018-08-20T11:31:57.952Z,23.54
2018-08-20T11:34:26.496Z,23.46
2018-08-20T11:36:55.123Z,23.34
2018-08-20T11:39:23.605Z,23.33
2018-08-20T11:41:52.333Z,23.29
2018-08-20T11:44:20.805Z,23.23
2018-08-20T11:46:49.336Z,23.15
2018-08-20T11:49:18.103Z,23.07
2018-08-20T11:51:46.584Z,23.01
2018-08-20T11:54:15.311Z,22.97
2018-08-20T11:56:43.873Z,23.04
2018-08-20T11:59:12.361Z,23.13
2018-08-20T12:01:40.974Z,23.17
2018-08-20T12:04:10.134Z,23.20
2018-08-20T12:06:38.674Z,23.21
2018-08-20T12:09:07.405Z,23.15
2018-08-20T12:11:36.014Z,23.14
2018-08-20T12:14:04.562Z,23.09
2018-08-20T12:16:33.061Z,23.08
2018-08-20T12:19:01.641Z,23.01
2018-08-20T12:21:30.207Z,22.88
2018-08-20T12:23:59.000Z,22.79
2018-08-20T12:26:27.525Z,22.71
2018-08-20T12:28:56.090Z,22.65
2018-08-20T12:34:04.505Z,22.64
2018-08-20T12:36:33.138Z,22.61
2018-08-20T12:39:01.595Z,22.65
2018-08-20T12:41:30.171Z,22.72
2018-08-20T12:43:58.737Z,22.80
2018-08-20T12:46:27.170Z,22.87
2018-08-20T12:48:55.715Z,22.99
2018-08-20T12:51:24.287Z,23.11
2018-08-20T12:53:52.970Z,23.20
2018-08-20T12:56:21.456Z,23.37
2018-08-20T12:58:51.097Z,23.53
2018-08-20T13:01:19.751Z,23.64
2018-08-20T13:03:49.144Z,23.84
2018-08-20T13:06:17.696Z,23.97
2018-08-20T13:08:47.305Z,24.10
2018-08-20T13:11:16.156Z,24.24
2018-08-20T13:13:45.248Z,24.53
2018-08-20T13:16:14.371Z,24.74
2018-08-20T13:18:42.699Z,24.88
2018-08-20T13:21:11.199Z,25.06
2018-08-20T13:23:39.661Z,25.26
2018-08-20T13:26:08.253Z,25.25
2018-08-20T13:28:36.864Z,25.10
2018-08-20T13:31:05.429Z,24.94
2018-08-20T13:33:34.000Z,24.72
2018-08-20T13:36:02.494Z,24.48
2018-08-20T13:38:31.057Z,24.23
2018-08-20T13:40:59.622Z,24.06
2018-08-20T13:43:28.163Z,23.89
2018-08-20T13:45:56.651Z,23.84
2018-08-20T13:48:25.124Z,23.86
2018-08-20T13:50:54.933Z,23.97
2018-08-20T13:53:23.739Z,23.97
2018-08-20T13:55:52.289Z,23.96
2018-08-20T13:58:20.868Z,23.93
2018-08-20T14:00:49.448Z,23.91
2018-08-20T14:03:17.956Z,23.89
2018-08-20T14:05:47.014Z,23.84
2018-08-20T14:08:15.620Z,23.80
2018-08-20T14:10:44.283Z,23.74
2018-08-20T14:13:12.896Z,23.65
2018-08-20T14:15:41.570Z,23.56
2018-08-20T14:18:10.294Z,23.58
2018-08-20T14:20:39.265Z,23.53
2018-08-20T14:23:07.843Z,23.51
2018-08-20T14:25:36.325Z,23.58
2018-08-20T14:28:05.527Z,23.51
2018-08-20T14:30:34.238Z,23.47
2018-08-20T14:33:02.700Z,23.48
2018-08-20T14:35:31.157Z,23.51
2018-08-20T14:37:59.668Z,23.49
2018-08-20T14:40:28.264Z,23.51
2018-08-20T14:42:56.741Z,23.52
2018-08-20T14:45:29.443Z,23.56
2018-08-20T14:47:58.005Z,23.55
2018-08-20T14:50:26.465Z,23.59
2018-08-20T14:52:55.059Z,23.65
2018-08-20T14:55:23.607Z,23.67
2018-08-20T14:57:52.534Z,23.65
2018-08-20T15:00:21.111Z,23.59
2018-08-20T15:02:49.619Z,23.63
2018-08-20T15:05:18.250Z,23.79
2018-08-20T15:07:46.761Z,23.90
2018-08-20T15:10:15.244Z,24.00
2018-08-20T15:12:43.713Z,24.10
2018-08-20T15:15:12.265Z,24.25
2018-08-20T15:17:40.790Z,24.39
2018-08-20T15:20:09.752Z,24.53
2018-08-20T15:22:38.766Z,24.69
2018-08-20T15:25:07.358Z,24.84
2018-08-20T15:27:35.974Z,24.86
2018-08-20T15:30:04.968Z,24.95
2018-08-20T15:32:33.514Z,24.99
2018-08-20T15:35:01.962Z,25.02
2018-08-20T15:37:30.500Z,24.94
2018-08-20T15:39:59.059Z,24.83
2018-08-20T15:42:27.519Z,24.80
2018-08-20T15:44:56.006Z,24.83
2018-08-20T15:47:24.445Z,24.77
2018-08-20T15:49:52.884Z,24.68
2018-08-20T15:52:21.392Z,24.65
2018-08-20T15:54:50.145Z,24.58
2018-08-20T15:57:18.640Z,24.49
2018-08-20T15:59:47.119Z,24.39
2018-08-20T16:02:15.777Z,24.39
2018-08-20T16:04:44.380Z,24.38
2018-08-20T16:07:13.008Z,24.32
2018-08-20T16:09:41.496Z,24.31
2018-08-20T16:12:10.030Z,24.38
2018-08-20T16:14:38.614Z,24.45
2018-08-20T16:17:07.102Z,24.47
2018-08-20T16:19:35.562Z,24.41
2018-08-20T16:22:04.189Z,24.43
2018-08-20T16:24:32.763Z,24.40
2018-08-20T16:27:01.314Z,24.46
2018-08-20T16:29:29.863Z,24.45
2018-08-20T16:31:58.406Z,24.52
2018-08-20T16:34:27.067Z,24.56
2018-08-20T16:36:55.679Z,24.49
2018-08-20T16:39:24.557Z,24.41
2018-08-20T16:42:02.560Z,24.32
2018-08-20T16:44:31.045Z,24.24
2018-08-20T16:46:59.558Z,24.23
2018-08-20T16:49:28.159Z,24.14
2018-08-20T16:51:56.699Z,24.07
2018-08-20T16:54:25.231Z,24.06
2018-08-20T16:56:53.728Z,24.03
2018-08-20T16:59:22.374Z,24.05
2018-08-20T17:01:50.951Z,24.05
2018-08-20T17:04:32.620Z,23.92
2018-08-20T17:07:02.850Z,23.84
2018-08-20T17:09:31.413Z,23.80
2018-08-20T17:12:00.054Z,23.74
2018-08-20T17:14:28.599Z,23.69
2018-08-20T17:16:57.116Z,23.62
2018-08-20T17:19:45.718Z,23.55
2018-08-20T17:22:14.421Z,23.43
2018-08-20T17:24:43.001Z,23.39
2018-08-20T17:27:12.101Z,23.35
2018-08-20T17:29:40.621Z,23.29
2018-08-20T17:32:09.915Z,23.23
2018-08-20T17:34:43.394Z,23.20
2018-08-20T17:37:12.181Z,23.19
2018-08-20T17:39:58.366Z,23.17
2018-08-20T17:42:28.575Z,23.13
2018-08-20T17:44:57.409Z,23.12
2018-08-20T17:47:27.019Z,23.10
2018-08-20T17:49:56.704Z,23.04
2018-08-20T17:52:38.270Z,23.01
2018-08-20T17:55:06.771Z,22.94
2018-08-20T17:57:35.240Z,22.91
2018-08-20T18:00:19.088Z,22.92
2018-08-20T18:02:47.521Z,22.87
2018-08-20T18:05:16.370Z,22.85
2018-08-20T18:07:45.489Z,22.81
2018-08-20T18:10:14.065Z,22.76
2018-08-20T18:12:42.612Z,22.72
2018-08-20T18:15:16.473Z,22.68
2018-08-20T18:17:45.515Z,22.64
2018-08-20T18:20:14.402Z,22.61
2018-08-20T18:22:43.102Z,22.57
2018-08-20T18:25:11.758Z,22.53
2018-08-20T18:27:44.338Z,22.53
2018-08-20T18:30:15.900Z,22.47
2018-08-20T18:32:44.615Z,22.43
2018-08-20T18:35:29.822Z,22.41
2018-08-20T18:37:58.379Z,22.38
2018-08-20T18:40:41.525Z,22.35
2018-08-20T18:43:10.102Z,22.31
2018-08-20T18:45:38.696Z,22.26
2018-08-20T18:48:07.256Z,22.22
2018-08-20T18:50:35.828Z,22.19
2018-08-20T18:53:04.446Z,22.16
2018-08-20T18:55:33.037Z,22.14
2018-08-20T18:58:01.617Z,22.11
2018-08-20T19:00:30.248Z,22.09
2018-08-20T19:03:00.544Z,22.07
2018-08-20T19:05:33.599Z,22.04
2018-08-20T19:08:05.859Z,21.99
2018-08-20T19:10:34.469Z,22.00
2018-08-20T19:13:23.960Z,21.96
2018-08-20T19:15:52.634Z,21.90
2018-08-20T23:02:51.641Z,20.09
2018-08-20T23:05:20.240Z,20.12
2018-08-20T23:07:48.795Z,20.14
2018-08-20T23:10:17.511Z,20.14
2018-08-20T23:12:46.153Z,20.14
2018-08-20T23:15:14.901Z,20.15
2018-08-20T23:17:43.478Z,20.16
2018-08-20T23:20:18.977Z,20.17
2018-08-20T23:22:52.843Z,20.18
2018-08-20T23:25:22.171Z,20.15
2018-08-20T23:27:50.789Z,20.14
2018-08-20T23:30:19.948Z,20.11
2018-08-20T23:32:48.661Z,20.06
2018-08-20T23:35:17.261Z,20.02
2018-08-20T23:37:45.760Z,20.00
2018-08-20T23:40:14.360Z,20.01
2018-08-20T23:42:42.943Z,20.00
2018-08-20T23:45:11.542Z,20.01
2018-08-20T23:47:40.081Z,20.00
2018-08-20T23:50:08.665Z,20.01
2018-08-20T23:52:37.229Z,20.01
2018-08-20T23:55:05.832Z,20.01
2018-08-20T23:57:34.912Z,20.01
